Time;durP1;ratioP1;P1;durP2;ratioP2;P2;SDS_P1;SDS_P2;PMS_P1;PMS_P2;Temp;Humidity;BMP_temperature;BMP_pressure;BME280_temperature;BME280_humidity;BME280_pressure;Samples;Min_cycle;Max_cycle;Signal;HPM_P1;HPM_P2
2021/08/31 00:02:05;;;;;;;4.53;2.50;;;;;;;15.94;56.75;101223.53;5051055;28;20180;-59
2021/08/31 00:04:30;;;;;;;3.90;2.43;;;;;;;16.50;56.83;101313.03;5050661;28;20352;-59
2021/08/31 00:06:56;;;;;;;4.80;2.30;;;;;;;15.97;56.02;101236.63;5049713;28;20214;-58
2021/08/31 00:09:21;;;;;;;3.37;2.17;;;;;;;16.42;56.27;101319.34;5050509;28;20189;-59
2021/08/31 00:11:47;;;;;;;3.47;2.60;;;;;;;16.38;56.67;101317.41;5051203;28;20263;-59
2021/08/31 00:14:13;;;;;;;3.17;2.40;;;;;;;16.35;56.74;101318.31;5050298;28;20185;-58
2021/08/31 00:16:40;;;;;;;3.77;2.20;;;;;;;16.27;56.38;101316.22;5050977;28;20205;-58
2021/08/31 00:19:05;;;;;;;2.50;2.10;;;;;;;16.15;57.02;101301.09;5050861;28;20688;-59
2021/08/31 00:21:31;;;;;;;4.10;2.37;;;;;;;16.26;57.70;101317.47;5050890;28;20210;-59
2021/08/31 00:23:56;;;;;;;4.63;2.43;;;;;;;16.24;57.55;101317.16;5050499;28;20185;-58
2021/08/31 00:26:22;;;;;;;2.60;2.40;;;;;;;16.19;57.37;101307.31;5050698;28;20264;-58
2021/08/31 00:28:47;;;;;;;3.97;2.93;;;;;;;16.13;57.79;101302.78;5050740;28;20179;-58
2021/08/31 00:31:12;;;;;;;2.97;2.40;;;;;;;16.18;57.77;101314.13;5032746;28;20689;-59
2021/08/31 00:33:38;;;;;;;2.73;2.30;;;;;;;16.12;57.67;101306.78;5050338;28;20711;-58
2021/08/31 00:36:04;;;;;;;4.27;2.60;;;;;;;15.71;57.48;101262.31;5050257;28;20194;-58
2021/08/31 00:38:31;;;;;;;3.47;2.40;;;;;;;15.97;57.58;101306.50;5050626;28;20678;-59
2021/08/31 00:40:57;;;;;;;3.00;2.50;;;;;;;15.57;57.38;101254.44;5050646;28;20559;-59
2021/08/31 00:43:23;;;;;;;3.83;2.77;;;;;;;15.96;57.67;101323.72;5050342;28;20237;-58
2021/08/31 00:45:49;;;;;;;3.30;2.77;;;;;;;15.97;58.12;101308.50;5049094;28;20272;-58
2021/08/31 00:48:17;;;;;;;4.80;2.60;;;;;;;15.90;58.74;101317.94;5050660;28;20187;-58
2021/08/31 00:50:44;;;;;;;3.13;2.73;;;;;;;15.65;58.61;101272.50;5050420;28;20242;-58
2021/08/31 00:53:10;;;;;;;3.07;2.40;;;;;;;15.95;58.74;101320.16;5050222;28;20182;-58
2021/08/31 00:55:36;;;;;;;5.20;2.63;;;;;;;15.53;58.21;101242.59;5050254;28;20192;-58
2021/08/31 00:58:01;;;;;;;4.90;2.80;;;;;;;16.07;58.28;101313.75;5050314;28;20248;-59
2021/08/31 01:00:27;;;;;;;7.00;2.60;;;;;;;16.12;58.07;101317.97;5050540;28;20259;-58
2021/08/31 01:02:53;;;;;;;7.80;2.93;;;;;;;15.91;58.45;101287.97;5050341;28;20188;-59
2021/08/31 01:05:18;;;;;;;4.43;3.40;;;;;;;16.00;58.35;101308.41;5049911;28;20227;-58
2021/08/31 01:07:44;;;;;;;6.07;3.57;;;;;;;15.89;58.74;101321.19;5050262;28;20179;-58
2021/08/31 01:10:10;;;;;;;4.20;3.17;;;;;;;15.76;59.59;101323.22;5050194;28;20211;-57
2021/08/31 01:12:36;;;;;;;4.67;3.10;;;;;;;15.64;59.61;101327.63;5050329;28;20445;-58
2021/08/31 01:15:02;;;;;;;7.00;3.67;;;;;;;15.56;59.77;101322.69;5031665;28;20186;-58
2021/08/31 01:17:30;;;;;;;7.27;3.47;;;;;;;15.35;59.76;101293.47;5049170;28;20679;-59
2021/08/31 01:19:58;;;;;;;5.77;3.23;;;;;;;15.56;59.90;101305.94;5050570;28;20188;-58
2021/08/31 01:22:24;;;;;;;4.83;2.90;;;;;;;15.16;59.56;101226.69;5054266;28;20279;-59
2021/08/31 01:24:56;;;;;;;4.07;3.20;;;;;;;15.87;59.78;101326.44;5053634;28;20362;-58
2021/08/31 01:27:21;;;;;;;4.90;2.90;;;;;;;15.93;59.45;101324.66;5054191;28;20192;-59
2021/08/31 01:29:49;;;;;;;5.10;3.00;;;;;;;15.99;59.57;101320.81;5054047;28;20198;-58
2021/08/31 01:32:14;;;;;;;4.60;3.37;;;;;;;15.77;59.02;101280.09;5053693;28;20545;-59
2021/08/31 01:34:39;;;;;;;5.10;3.10;;;;;;;16.09;59.07;101325.25;5053649;28;20263;-59
2021/08/31 01:37:08;;;;;;;4.33;2.90;;;;;;;16.10;58.87;101321.25;5053840;28;20215;-59
2021/08/31 01:39:33;;;;;;;3.97;3.00;;;;;;;16.08;58.68;101323.69;5051301;28;20191;-58
2021/08/31 01:41:59;;;;;;;4.27;2.73;;;;;;;16.08;58.65;101323.69;5053732;28;20670;-58
2021/08/31 01:44:24;;;;;;;5.60;2.43;;;;;;;16.02;58.72;101321.91;5053399;28;20183;-59
2021/08/31 01:46:50;;;;;;;5.70;3.00;;;;;;;15.85;59.02;101304.53;5053549;28;20594;-58
2021/08/31 01:49:15;;;;;;;6.77;3.27;;;;;;;15.75;59.38;101313.28;5053704;28;20235;-58
2021/08/31 01:51:41;;;;;;;3.93;3.03;;;;;;;15.39;59.83;101284.97;5053786;28;20187;-58
2021/08/31 01:54:06;;;;;;;4.17;3.10;;;;;;;15.56;60.06;101331.88;5053220;28;20177;-58
2021/08/31 01:56:32;;;;;;;3.63;3.00;;;;;;;15.56;60.08;101328.28;5053323;28;20704;-58
2021/08/31 01:58:58;;;;;;;4.70;3.20;;;;;;;15.39;59.99;101310.09;5053568;28;20686;-59
2021/08/31 02:01:23;;;;;;;4.60;3.07;;;;;;;15.49;60.16;101331.31;5052257;28;20179;-57
2021/08/31 02:03:48;;;;;;;3.77;2.80;;;;;;;15.53;60.19;101329.97;5035086;28;20311;-58
2021/08/31 02:06:14;;;;;;;4.27;3.20;;;;;;;15.58;59.74;101320.25;5053126;28;20182;-59
2021/08/31 02:08:39;;;;;;;3.87;2.90;;;;;;;15.57;60.24;101308.28;5053339;28;20184;-58
2021/08/31 02:11:05;;;;;;;3.67;2.73;;;;;;;15.72;59.94;101325.38;5053435;28;20215;-59
2021/08/31 02:13:30;;;;;;;3.10;2.80;;;;;;;15.79;60.12;101323.09;5052874;28;20202;-59
2021/08/31 02:15:56;;;;;;;3.87;2.80;;;;;;;15.90;59.86;101326.34;5052739;28;20181;-58
2021/08/31 02:18:21;;;;;;;6.30;2.80;;;;;;;15.97;59.44;101322.50;5053301;28;20232;-59
2021/08/31 02:20:47;;;;;;;5.17;2.93;;;;;;;16.01;59.89;101320.34;5053139;28;20358;-58
2021/08/31 02:23:12;;;;;;;5.40;3.30;;;;;;;15.61;59.38;101258.66;5052842;28;20253;-59
2021/08/31 02:25:38;;;;;;;5.33;2.80;;;;;;;15.79;59.30;101286.75;5052803;28;20196;-58
2021/08/31 02:28:03;;;;;;;4.27;2.80;;;;;;;16.09;59.96;101313.28;5052879;28;20183;-59
2021/08/31 02:30:29;;;;;;;8.47;3.37;;;;;;;16.08;59.61;101304.13;5052649;28;20218;-59
2021/08/31 02:32:59;;;;;;;7.60;3.10;;;;;;;16.10;59.37;101306.47;5052287;28;20631;-59
2021/08/31 02:35:25;;;;;;;4.93;3.10;;;;;;;15.96;59.34;101279.00;5052797;28;20184;-58
2021/08/31 02:37:51;;;;;;;6.40;2.83;;;;;;;16.15;59.47;101315.06;5052613;28;20187;-58
2021/08/31 02:40:16;;;;;;;4.37;3.00;;;;;;;16.18;59.06;101310.59;5052693;28;20187;-58
2021/08/31 02:42:42;;;;;;;4.97;2.90;;;;;;;16.18;58.71;101318.97;5052770;28;20188;-59
2021/08/31 02:45:08;;;;;;;9.13;3.20;;;;;;;16.19;58.50;101312.91;5052379;28;20711;-58
2021/08/31 02:47:34;;;;;;;5.33;2.70;;;;;;;15.67;58.63;101247.72;5052400;28;20194;-58
2021/08/31 02:49:59;;;;;;;7.03;3.40;;;;;;;16.19;58.68;101320.53;5052364;28;20216;-58
2021/08/31 02:52:24;;;;;;;5.03;3.00;;;;;;;15.75;58.49;101255.41;5052844;28;20593;-59
2021/08/31 02:54:50;;;;;;;3.87;2.90;;;;;;;16.09;58.47;101319.66;5052197;28;20181;-58
2021/08/31 02:57:15;;;;;;;4.90;2.90;;;;;;;16.06;58.56;101319.78;5052408;28;20186;-58
2021/08/31 02:59:41;;;;;;;5.50;2.90;;;;;;;15.48;58.72;101238.34;5052477;28;20186;-58
2021/08/31 03:02:07;;;;;;;4.23;2.67;;;;;;;16.00;58.82;101318.81;5051989;28;20584;-58
2021/08/31 03:04:50;;;;;;;4.03;2.90;;;;;;;15.93;58.82;101322.63;5051673;28;20730;-58
2021/08/31 03:07:17;;;;;;;4.20;2.97;;;;;;;15.85;59.63;101318.53;5034356;28;20186;-59
2021/08/31 03:09:42;;;;;;;4.83;2.80;;;;;;;15.82;59.76;101327.78;5051993;28;20207;-58
2021/08/31 03:12:08;;;;;;;10.00;3.23;;;;;;;15.73;60.23;101330.50;5052004;28;20190;-59
2021/08/31 03:14:34;;;;;;;7.50;3.33;;;;;;;15.29;60.35;101286.88;5051624;28;20187;-59
2021/08/31 03:16:59;;;;;;;13.10;4.37;;;;;;;15.33;60.63;101325.88;5051880;28;20236;-58
2021/08/31 03:19:25;;;;;;;13.70;4.27;;;;;;;15.46;59.51;101324.63;5051910;28;20187;-58
2021/08/31 03:21:57;;;;;;;8.13;3.53;;;;;;;15.45;59.60;101337.03;5051791;28;20276;-58
2021/08/31 03:24:23;;;;;;;8.37;3.70;;;;;;;15.29;60.17;101308.41;5051913;28;20580;-58
2021/08/31 03:26:49;;;;;;;7.23;3.80;;;;;;;15.48;60.31;101336.13;5051780;28;20183;-58
2021/08/31 03:29:14;;;;;;;9.80;3.43;;;;;;;15.48;60.22;101336.13;5051990;28;20239;-59
2021/08/31 03:31:40;;;;;;;7.27;4.00;;;;;;;15.54;60.31;101353.13;5051582;28;20186;-59
2021/08/31 03:34:06;;;;;;;6.23;3.33;;;;;;;15.49;60.83;101336.91;5050997;28;20262;-58
2021/08/31 03:36:32;;;;;;;7.73;3.30;;;;;;;15.50;60.64;101342.06;5051744;28;20201;-58
2021/08/31 03:38:57;;;;;;;7.03;3.70;;;;;;;15.51;60.92;101340.81;5051447;28;20185;-58
2021/08/31 03:41:23;;;;;;;7.53;3.30;;;;;;;15.47;60.89;101333.81;5051990;28;20182;-58
2021/08/31 03:43:48;;;;;;;6.80;3.30;;;;;;;15.40;60.40;101345.19;5050416;28;20187;-58
2021/08/31 03:46:14;;;;;;;7.00;3.53;;;;;;;15.33;60.38;101348.22;5051354;28;20176;-58
2021/08/31 03:48:40;;;;;;;13.70;4.07;;;;;;;15.15;60.54;101351.53;5051266;28;20181;-58
2021/08/31 03:51:06;;;;;;;10.20;4.13;;;;;;;15.05;61.10;101351.84;5051288;28;20703;-58
2021/08/31 03:53:32;;;;;;;9.23;4.00;;;;;;;14.58;61.16;101298.66;5051653;28;20183;-58
2021/08/31 03:55:57;;;;;;;8.90;3.57;;;;;;;14.87;61.52;101352.41;5051097;28;20194;-58
2021/08/31 03:58:23;;;;;;;7.10;4.10;;;;;;;14.37;61.72;101284.53;5051010;28;20655;-59
2021/08/31 04:00:48;;;;;;;7.27;3.73;;;;;;;14.94;62.52;101363.34;5051335;28;20210;-58
2021/08/31 04:03:14;;;;;;;8.70;4.00;;;;;;;15.00;62.73;101366.34;5050618;28;20184;-58
2021/08/31 04:05:39;;;;;;;6.43;3.40;;;;;;;15.05;62.39;101374.97;5051028;28;20258;-58
2021/08/31 04:08:05;;;;;;;5.57;3.30;;;;;;;14.99;62.34;101348.84;5050842;28;20206;-58
2021/08/31 04:10:31;;;;;;;8.50;3.67;;;;;;;15.17;62.72;101363.03;5051075;28;20294;-58
2021/08/31 04:12:56;;;;;;;9.07;4.10;;;;;;;15.19;62.39;101366.16;5050635;28;20261;-58
2021/08/31 04:15:22;;;;;;;8.23;3.67;;;;;;;15.14;62.64;101371.50;5049697;28;20242;-58
2021/08/31 04:17:47;;;;;;;8.10;3.83;;;;;;;15.17;63.28;101368.59;5032881;28;20214;-58
2021/08/31 04:20:13;;;;;;;11.90;6.00;;;;;;;15.20;63.20;101373.31;5050480;28;20186;-58
2021/08/31 04:22:39;;;;;;;8.10;4.37;;;;;;;15.27;62.97;101375.09;5049426;28;20689;-58
2021/08/31 04:25:05;;;;;;;6.77;3.70;;;;;;;15.21;62.74;101362.94;5049310;28;20184;-58
2021/08/31 04:27:31;;;;;;;6.43;3.80;;;;;;;14.79;62.78;101295.22;5050349;28;20174;-58
2021/08/31 04:29:56;;;;;;;7.27;3.73;;;;;;;15.36;62.84;101378.06;5049990;28;20206;-59
2021/08/31 04:32:22;;;;;;;6.63;3.50;;;;;;;15.37;62.73;101385.19;5050103;28;20240;-58
2021/08/31 04:34:51;;;;;;;7.40;3.23;;;;;;;15.41;62.78;101389.44;5049653;28;20193;-59
2021/08/31 04:37:17;;;;;;;7.13;3.50;;;;;;;15.54;63.06;101384.63;5049253;28;20267;-58
2021/08/31 04:39:42;;;;;;;5.90;3.50;;;;;;;15.68;62.88;101391.78;5050466;28;20257;-59
2021/08/31 04:42:08;;;;;;;10.90;3.53;;;;;;;15.76;62.57;101382.69;5032474;28;20567;-58
2021/08/31 04:44:33;;;;;;;12.10;4.53;;;;;;;15.77;62.52;101389.84;5050110;28;20226;-58
2021/08/31 04:46:59;;;;;;;12.07;4.40;;;;;;;15.89;62.77;101394.63;5050373;28;20182;-58
2021/08/31 04:49:25;;;;;;;8.87;3.77;;;;;;;15.93;62.14;101370.13;5050291;28;20176;-59
2021/08/31 04:51:50;;;;;;;12.80;5.67;;;;;;;16.16;61.56;101388.53;5050747;28;20177;-58
2021/08/31 04:54:16;;;;;;;15.37;6.80;;;;;;;16.21;61.60;101396.34;5051162;28;20662;-58
2021/08/31 04:56:42;;;;;;;16.30;5.53;;;;;;;16.30;61.79;101393.63;5050046;28;20188;-58
2021/08/31 04:59:07;;;;;;;15.23;4.20;;;;;;;16.44;62.26;101391.13;5050788;28;20191;-58
2021/08/31 05:01:33;;;;;;;2.33;1.80;;;;;;;17.95;63.26;101379.66;5044116;28;20218;-58
2021/08/31 05:03:58;;;;;;;8.60;2.60;;;;;;;20.25;54.74;101397.34;5038438;28;20235;-59
2021/08/31 05:06:24;;;;;;;9.13;2.80;;;;;;;21.25;51.28;101393.16;5049177;28;20238;-60
2021/08/31 05:08:49;;;;;;;9.20;3.13;;;;;;;21.95;48.65;101391.94;5023090;28;20190;-63
2021/08/31 05:11:15;;;;;;;7.30;2.80;;;;;;;22.33;47.25;101388.06;5042314;28;20209;-61
2021/08/31 05:13:40;;;;;;;6.87;2.47;;;;;;;22.55;47.00;101388.34;5032330;28;20201;-59
2021/08/31 05:16:08;;;;;;;7.87;2.57;;;;;;;23.04;46.00;101383.22;5043825;28;20183;-58
2021/08/31 05:18:35;;;;;;;8.53;3.03;;;;;;;23.34;46.50;101378.88;5039560;28;20184;-58
2021/08/31 05:21:00;;;;;;;8.67;2.73;;;;;;;23.30;46.39;101341.56;5045717;28;20180;-59
2021/08/31 05:23:26;;;;;;;9.17;2.90;;;;;;;23.18;46.12;101297.50;5042211;28;20185;-59
2021/08/31 05:25:51;;;;;;;8.97;2.80;;;;;;;23.74;45.13;101377.88;5038964;28;20259;-58
2021/08/31 05:28:17;;;;;;;17.00;3.80;;;;;;;23.75;44.77;101380.19;5031601;28;20717;-58
2021/08/31 05:30:43;;;;;;;17.03;3.20;;;;;;;23.97;44.00;101385.22;5043894;28;20205;-58
2021/08/31 05:33:08;;;;;;;10.47;2.60;;;;;;;23.48;43.33;101312.88;5035896;28;20193;-59
2021/08/31 05:35:33;;;;;;;6.63;2.27;;;;;;;23.78;43.42;101382.00;5041070;28;20554;-58
2021/08/31 05:37:59;;;;;;;7.63;2.77;;;;;;;23.47;43.65;101352.97;5044269;28;20184;-58
2021/08/31 05:40:24;;;;;;;7.53;2.30;;;;;;;23.18;43.81;101325.03;5045472;28;20204;-59
2021/08/31 05:42:50;;;;;;;3.37;2.30;;;;;;;23.26;43.81;101335.38;5048365;28;20184;-58
2021/08/31 05:45:15;;;;;;;3.70;2.07;;;;;;;23.59;43.90;101380.09;5041225;28;20625;-59
2021/08/31 05:47:41;;;;;;;5.43;2.47;;;;;;;23.10;44.77;101371.94;5046925;28;20187;-58
2021/08/31 05:50:07;;;;;;;4.10;2.30;;;;;;;22.94;45.07;101379.03;5032134;28;20204;-59
2021/08/31 05:52:32;;;;;;;6.13;2.67;;;;;;;22.33;46.23;101362.66;5043757;28;20184;-58
2021/08/31 05:55:01;;;;;;;5.70;2.10;;;;;;;22.07;46.85;101350.53;5047277;28;20192;-59
2021/08/31 05:57:26;;;;;;;4.23;2.23;;;;;;;21.96;47.48;101385.00;5041043;28;20196;-59
2021/08/31 05:59:52;;;;;;;3.70;2.40;;;;;;;22.01;47.77;101375.09;5034694;28;20218;-59
2021/08/31 06:02:18;;;;;;;4.57;3.10;;;;;;;21.59;48.27;101349.34;5048645;28;20278;-59
2021/08/31 06:04:43;;;;;;;4.90;2.30;;;;;;;21.55;48.47;101376.97;5046170;28;20280;-61
2021/08/31 06:07:10;;;;;;;3.67;2.30;;;;;;;21.96;48.04;101387.84;5045206;28;20187;-58
2021/08/31 06:09:38;;;;;;;4.43;2.33;;;;;;;22.22;47.24;101383.03;5048821;28;20622;-59
2021/08/31 06:12:09;;;;;;;5.50;2.40;;;;;;;22.47;46.54;101385.19;5049201;28;20180;-57
2021/08/31 06:14:35;;;;;;;4.50;2.70;;;;;;;22.59;46.23;101386.88;5048130;28;20271;-59
2021/08/31 06:17:02;;;;;;;4.70;2.30;;;;;;;22.33;47.01;101393.72;5048669;28;20729;-57
2021/08/31 06:19:28;;;;;;;4.87;2.43;;;;;;;22.26;46.90;101396.97;5049039;28;20724;-58
2021/08/31 06:21:53;;;;;;;3.03;2.30;;;;;;;22.31;47.00;101385.72;5048057;28;20184;-62
2021/08/31 06:24:19;;;;;;;8.93;3.03;;;;;;;22.62;46.35;101380.22;5046003;28;20219;-60
2021/08/31 06:26:44;;;;;;;6.50;2.40;;;;;;;22.88;46.73;101383.81;5045266;28;20196;-60
2021/08/31 06:29:10;;;;;;;7.03;2.90;;;;;;;23.38;44.91;101389.97;5049772;28;20188;-61
2021/08/31 06:31:35;;;;;;;4.20;2.67;;;;;;;23.02;44.50;101370.88;5048314;28;20212;-60
2021/08/31 06:34:01;;;;;;;4.43;3.20;;;;;;;22.77;42.08;101382.94;5049472;28;20184;-60
2021/08/31 06:36:26;;;;;;;5.37;2.87;;;;;;;22.22;43.54;101382.28;5047791;28;20674;-59
2021/08/31 06:38:52;;;;;;;6.17;3.00;;;;;;;22.03;45.37;101297.13;5048628;28;20570;-60
2021/08/31 06:41:17;;;;;;;5.13;2.70;;;;;;;22.54;44.27;101338.78;5048347;28;20195;-59
2021/08/31 06:43:46;;;;;;;4.37;2.77;;;;;;;23.09;44.25;101387.38;5044355;28;20242;-60
2021/08/31 06:46:14;;;;;;;5.90;2.83;;;;;;;23.33;43.86;101399.19;5048675;28;20180;-59
2021/08/31 06:48:43;;;;;;;7.40;2.90;;;;;;;23.24;43.56;101374.66;5045649;28;20283;-58
2021/08/31 06:51:09;;;;;;;4.23;2.40;;;;;;;23.31;43.70;101401.72;5045993;28;20212;-59
2021/08/31 06:53:35;;;;;;;6.90;2.60;;;;;;;23.40;43.62;101402.34;5050518;28;20645;-59
2021/08/31 09:46:56;;;;;;;2.33;1.50;;;;;;;27.67;31.76;101318.47;6127665;22;1549480;-58
2021/08/31 09:49:27;;;;;;;2.47;1.37;;;;;;;27.75;31.51;101320.19;6159256;23;20175;-59
2021/08/31 09:52:20;;;;;;;5.30;1.40;;;;;;;27.34;30.35;101225.66;6140567;23;20269;-59
2021/08/31 09:54:48;;;;;;;5.40;1.40;;;;;;;27.78;31.04;101304.91;6183004;23;20187;-59
2021/08/31 09:57:27;;;;;;;4.87;1.50;;;;;;;27.93;31.48;101313.03;6184129;23;20525;-60
2021/08/31 09:59:53;;;;;;;2.77;1.33;;;;;;;27.97;30.19;101304.94;6183287;23;20547;-59
2021/08/31 10:02:18;;;;;;;4.57;1.57;;;;;;;27.88;31.37;101311.00;6186237;23;20148;-61
2021/08/31 10:04:44;;;;;;;2.93;1.50;;;;;;;27.83;30.88;101304.09;6189381;23;20721;-60
2021/08/31 10:07:12;;;;;;;4.50;1.60;;;;;;;27.70;31.09;101311.72;6188445;23;20551;-60
2021/08/31 10:09:39;;;;;;;5.67;1.40;;;;;;;27.78;30.91;101298.41;6189989;23;20642;-59
2021/08/31 10:12:08;;;;;;;6.00;1.67;;;;;;;27.81;31.05;101298.16;6183623;23;20161;-60
2021/08/31 10:14:38;;;;;;;2.53;1.50;;;;;;;27.70;31.73;101297.50;6181878;23;20145;-59
2021/08/31 10:17:12;;;;;;;1.90;1.30;;;;;;;27.83;31.43;101295.53;6176983;23;20153;-60
2021/08/31 10:19:45;;;;;;;2.87;1.20;;;;;;;27.29;31.19;101209.47;6177703;23;20137;-63
2021/08/31 10:22:12;;;;;;;2.83;1.47;;;;;;;27.47;31.42;101217.25;6178569;23;20236;-64
2021/08/31 10:24:45;;;;;;;4.10;1.40;;;;;;;28.35;30.90;101275.94;6148841;23;20180;-60
2021/08/31 10:27:38;;;;;;;2.73;1.30;;;;;;;28.27;30.50;101280.72;6179386;23;20558;-59
2021/08/31 10:30:13;;;;;;;2.40;1.23;;;;;;;28.62;30.47;101279.72;6167553;23;20260;-62
2021/08/31 10:32:39;;;;;;;3.13;1.30;;;;;;;29.13;29.61;101272.66;6175732;23;20156;-60
2021/08/31 10:35:06;;;;;;;2.03;1.58;;;;;;;29.59;28.49;101263.50;6176948;23;20160;-60
2021/08/31 10:37:46;;;;;;;1.38;1.10;;;;;;;29.99;27.59;101250.69;6169796;23;20204;-60
2021/08/31 10:40:29;;;;;;;2.05;1.55;;;;;;;30.23;27.54;101265.50;6176115;23;20152;-62
2021/08/31 10:42:55;;;;;;;2.28;1.60;;;;;;;30.19;27.06;101264.31;6175705;23;20141;-66
2021/08/31 10:45:35;;;;;;;1.83;1.20;;;;;;;30.30;26.12;101241.19;6172435;23;20279;-61
2021/08/31 10:48:21;;;;;;;1.63;1.20;;;;;;;30.71;26.44;101250.59;6177691;23;20584;-60
2021/08/31 10:51:00;;;;;;;3.55;1.30;;;;;;;30.73;26.00;101250.81;6183956;23;20189;-60
2021/08/31 10:53:45;;;;;;;4.40;1.42;;;;;;;30.74;26.22;101248.69;6175022;23;20607;-60
2021/08/31 10:56:20;;;;;;;2.83;1.40;;;;;;;31.04;25.63;101249.75;6171906;23;20141;-60
2021/08/31 10:58:51;;;;;;;2.40;1.30;;;;;;;31.16;25.55;101255.94;6174789;23;20195;-60
2021/08/31 11:01:19;;;;;;;6.40;1.60;;;;;;;31.10;25.92;101246.72;6174887;23;20141;-64
2021/08/31 11:03:46;;;;;;;5.40;1.55;;;;;;;30.83;25.09;101196.72;6137354;23;20259;-66
2021/08/31 11:06:26;;;;;;;2.45;1.17;;;;;;;31.21;23.95;101223.53;6164194;23;20195;-62
2021/08/31 11:09:11;;;;;;;2.80;1.20;;;;;;;31.58;23.80;101248.81;6167752;23;20192;-63
2021/08/31 11:11:37;;;;;;;1.30;1.20;;;;;;;31.55;24.20;101238.47;6173859;23;20156;-65
2021/08/31 11:14:03;;;;;;;6.30;1.52;;;;;;;31.75;24.70;101247.03;6172184;23;20581;-62
2021/08/31 11:16:31;;;;;;;2.53;1.55;;;;;;;31.50;24.23;101237.31;6173916;23;20211;-63
2021/08/31 11:18:57;;;;;;;4.07;1.50;;;;;;;31.42;24.11;101193.53;6175332;23;20161;-64
2021/08/31 11:21:23;;;;;;;2.40;1.20;;;;;;;31.64;23.98;101232.97;6170864;23;20522;-64
2021/08/31 11:23:49;;;;;;;2.88;1.45;;;;;;;31.77;24.43;101230.03;6170418;23;20251;-61
2021/08/31 11:26:31;;;;;;;3.58;1.65;;;;;;;31.48;23.85;101210.56;6174939;23;20500;-63
2021/08/31 11:29:09;;;;;;;6.13;1.42;;;;;;;31.35;24.49;101207.78;6177003;23;20149;-62
2021/08/31 11:31:35;;;;;;;1.70;1.30;;;;;;;31.58;24.25;101220.16;6152941;23;20156;-63
2021/08/31 11:34:00;;;;;;;3.45;1.20;;;;;;;31.63;23.75;101222.09;6175690;23;20153;-63
2021/08/31 11:36:30;;;;;;;1.95;1.10;;;;;;;31.76;24.18;101219.13;6177569;23;20153;-64
2021/08/31 11:39:03;;;;;;;3.00;1.25;;;;;;;31.81;23.54;101224.69;6179482;23;20149;-62
2021/08/31 11:41:33;;;;;;;2.30;1.33;;;;;;;32.04;23.37;101224.78;6173679;23;20153;-63
2021/08/31 11:44:08;;;;;;;1.73;1.35;;;;;;;32.29;23.49;101223.00;6172787;23;20184;-69
2021/08/31 11:46:54;;;;;;;1.25;1.10;;;;;;;32.40;22.78;101231.22;6148015;23;20201;-67
2021/08/31 11:49:30;;;;;;;1.20;1.00;;;;;;;32.18;23.82;101229.03;6174146;23;20600;-65
2021/08/31 11:52:15;;;;;;;2.00;1.30;;;;;;;31.73;24.06;101225.97;6174449;23;20165;-64
2021/08/31 11:54:55;;;;;;;1.77;1.40;;;;;;;31.24;24.83;101234.66;6182465;23;20382;-63
2021/08/31 11:57:22;;;;;;;1.70;1.33;;;;;;;30.37;25.81;101197.59;6149426;23;20220;-61
2021/08/31 11:59:49;;;;;;;2.28;1.50;;;;;;;30.05;27.01;101226.38;6176061;23;20159;-62
2021/08/31 12:02:23;;;;;;;6.80;1.50;;;;;;;29.90;28.48;101223.31;6170927;23;20157;-63
2021/08/31 12:04:58;;;;;;;3.58;1.60;;;;;;;29.79;28.11;101228.53;6170786;23;20526;-65
2021/08/31 12:07:27;;;;;;;3.38;1.33;;;;;;;29.67;28.62;101221.50;6169299;23;20259;-61
2021/08/31 12:09:56;;;;;;;3.40;1.50;;;;;;;29.52;28.80;101226.97;6177956;23;20149;-64
2021/08/31 12:12:22;;;;;;;3.47;1.60;;;;;;;29.01;29.41;101177.16;6178358;23;20153;-61
2021/08/31 12:14:49;;;;;;;8.88;1.63;;;;;;;28.94;28.93;101172.81;6177779;23;20704;-61
2021/08/31 12:17:41;;;;;;;4.13;1.50;;;;;;;28.98;27.93;101226.75;6178288;23;20154;-65
2021/08/31 12:20:14;;;;;;;3.77;1.40;;;;;;;28.75;27.97;101220.63;6175429;23;20144;-64
2021/08/31 12:22:42;;;;;;;3.03;1.40;;;;;;;28.53;28.64;101177.44;6176702;23;20153;-65
2021/08/31 12:25:10;;;;;;;2.05;1.50;;;;;;;28.69;28.72;101216.31;6176327;23;20165;-64
2021/08/31 12:27:41;;;;;;;3.17;1.80;;;;;;;28.84;28.67;101223.06;6177335;23;20577;-65
2021/08/31 12:30:09;;;;;;;5.83;1.73;;;;;;;29.02;29.22;101218.63;6177817;23;20215;-65
2021/08/31 12:32:34;;;;;;;3.55;1.60;;;;;;;29.09;28.79;101212.25;6151442;23;20188;-65
2021/08/31 12:35:25;;;;;;;2.40;1.50;;;;;;;29.13;29.69;101207.75;6178273;23;20145;-65
2021/08/31 12:38:10;;;;;;;2.65;1.60;;;;;;;29.25;29.18;101199.75;6176223;23;20142;-65
2021/08/31 12:40:39;;;;;;;3.85;1.30;;;;;;;29.20;29.12;101166.38;6151417;23;20925;-65
2021/08/31 12:43:10;;;;;;;4.93;1.65;;;;;;;29.37;29.61;101179.00;6178293;23;20608;-65
2021/08/31 12:45:36;;;;;;;4.03;1.33;;;;;;;29.35;30.88;101158.81;6177984;23;20663;-65
2021/08/31 12:48:03;;;;;;;3.03;1.40;;;;;;;29.42;29.91;101149.56;6178883;23;20328;-65
2021/08/31 12:50:30;;;;;;;2.75;1.48;;;;;;;29.29;29.51;101101.06;6177309;23;20153;-65
2021/08/31 12:53:00;;;;;;;2.30;1.20;;;;;;;29.47;29.42;101142.97;6177731;23;20184;-63
2021/08/31 12:55:34;;;;;;;3.65;1.50;;;;;;;29.87;29.71;101195.09;6178352;23;20152;-61
2021/08/31 12:58:24;;;;;;;3.22;1.45;;;;;;;29.86;29.59;101185.00;6179537;23;20140;-65
2021/08/31 13:01:10;;;;;;;4.20;1.42;;;;;;;29.69;30.03;101185.34;6178917;23;20153;-65
2021/08/31 13:03:38;;;;;;;3.08;1.63;;;;;;;29.58;30.06;101184.84;6178588;23;20263;-64
2021/08/31 13:06:05;;;;;;;4.32;1.60;;;;;;;29.60;30.29;101182.97;6175349;23;20157;-62
2021/08/31 13:08:33;;;;;;;2.65;1.85;;;;;;;29.56;30.33;101173.97;6175958;23;20176;-62
2021/08/31 13:10:59;;;;;;;3.15;1.60;;;;;;;29.49;30.82;101176.69;6174462;23;20157;-64
2021/08/31 13:13:29;;;;;;;11.38;1.70;;;;;;;29.02;31.10;101184.38;6177167;23;20615;-65
2021/08/31 13:15:55;;;;;;;3.22;1.70;;;;;;;28.74;31.24;101193.41;6175148;23;20150;-64
2021/08/31 13:18:20;;;;;;;7.03;1.55;;;;;;;28.66;32.03;101186.81;6175096;23;20157;-63
2021/08/31 13:20:45;;;;;;;7.38;2.30;;;;;;;28.43;31.28;101167.75;6173884;23;20548;-61
2021/08/31 13:23:11;;;;;;;16.13;1.90;;;;;;;28.43;32.68;101190.56;6173513;23;20639;-60
2021/08/31 13:25:36;;;;;;;4.93;1.70;;;;;;;28.33;31.64;101186.56;6176960;23;20664;-62
2021/08/31 13:35:38;;;;;;;8.70;1.70;;;;;;;28.16;31.23;101149.00;6175763;23;20172;-62
2021/08/31 13:38:05;;;;;;;2.67;1.50;;;;;;;28.20;30.02;101200.78;6179297;23;20165;-62
2021/08/31 13:40:31;;;;;;;5.43;1.65;;;;;;;27.73;29.75;101139.81;6179609;23;20196;-62
2021/08/31 13:42:56;;;;;;;7.57;2.03;;;;;;;28.03;31.17;101183.91;6179585;23;20153;-62
2021/08/31 13:45:22;;;;;;;3.10;1.73;;;;;;;28.07;31.08;101192.94;6179454;23;20204;-62
2021/08/31 13:47:47;;;;;;;2.67;1.47;;;;;;;27.56;30.43;101139.25;6180050;23;20243;-62
2021/08/31 13:50:13;;;;;;;3.97;1.50;;;;;;;27.77;30.28;101192.28;6180673;23;20287;-62
2021/08/31 13:52:38;;;;;;;2.80;1.53;;;;;;;27.90;30.25;101185.94;6181618;23;20160;-62
2021/08/31 13:55:04;;;;;;;3.67;1.60;;;;;;;28.26;30.80;101184.34;6181760;23;20149;-62
2021/08/31 13:57:30;;;;;;;2.53;1.60;;;;;;;28.09;30.47;101183.84;6180054;23;20600;-62
2021/08/31 13:59:57;;;;;;;3.03;1.60;;;;;;;28.20;30.50;101158.78;6181716;23;20149;-62
2021/08/31 14:02:23;;;;;;;3.97;1.60;;;;;;;28.89;30.23;101178.63;6181650;23;20159;-62
2021/08/31 14:04:49;;;;;;;4.00;1.70;;;;;;;28.68;29.93;101177.72;6182172;23;20177;-62
2021/08/31 14:07:15;;;;;;;4.55;1.95;;;;;;;28.95;28.68;101167.88;6182445;23;20153;-62
2021/08/31 14:09:41;;;;;;;4.13;1.63;;;;;;;29.33;28.81;101160.69;6181581;23;20608;-62
2021/08/31 14:12:06;;;;;;;5.20;1.65;;;;;;;29.70;27.87;101171.84;6180041;23;20161;-62
2021/08/31 14:14:32;;;;;;;2.70;1.60;;;;;;;29.86;27.81;101170.72;6181633;23;20542;-62
2021/08/31 14:16:58;;;;;;;3.80;1.65;;;;;;;29.91;27.66;101172.66;6181953;23;20156;-62
2021/08/31 14:19:23;;;;;;;4.13;1.70;;;;;;;29.81;27.70;101131.59;6181235;23;20153;-62
2021/08/31 14:21:49;;;;;;;3.45;1.60;;;;;;;29.99;27.28;101162.84;6182151;23;20191;-62
2021/08/31 14:24:14;;;;;;;2.85;1.70;;;;;;;30.17;27.27;101156.22;6179629;23;20212;-62
2021/08/31 14:26:40;;;;;;;2.55;1.80;;;;;;;30.04;26.81;101146.91;6181596;23;20173;-62